sensor_id;sensor_type;location;lat;lon;timestamp;P1;durP1;ratioP1;P2;durP2;ratioP2
40076;SDS011;25777;47.824;18.982;2023-08-12T00:04:45;4.38;;;3.20;;
40076;SDS011;25777;47.824;18.982;2023-08-12T00:12:42;5.07;;;3.33;;
40076;SDS011;25777;47.824;18.982;2023-08-12T00:15:09;5.25;;;3.38;;
40076;SDS011;25777;47.824;18.982;2023-08-12T00:17:42;5.38;;;3.50;;
40076;SDS011;25777;47.824;18.982;2023-08-12T00:22:44;6.35;;;3.72;;
40076;SDS011;25777;47.824;18.982;2023-08-12T00:25:16;4.70;;;3.35;;
40076;SDS011;25777;47.824;18.982;2023-08-12T00:30:31;5.70;;;3.67;;
40076;SDS011;25777;47.824;18.982;2023-08-12T00:33:02;4.93;;;3.47;;
40076;SDS011;25777;47.824;18.982;2023-08-12T00:35:28;4.30;;;3.13;;
40076;SDS011;25777;47.824;18.982;2023-08-12T00:37:56;5.18;;;3.45;;
40076;SDS011;25777;47.824;18.982;2023-08-12T00:40:28;5.43;;;3.60;;
40076;SDS011;25777;47.824;18.982;2023-08-12T00:43:02;4.88;;;3.30;;
40076;SDS011;25777;47.824;18.982;2023-08-12T00:45:42;5.97;;;3.80;;
40076;SDS011;25777;47.824;18.982;2023-08-12T00:51:00;5.95;;;3.70;;
40076;SDS011;25777;47.824;18.982;2023-08-12T00:53:27;5.63;;;3.50;;
40076;SDS011;25777;47.824;18.982;2023-08-12T00:56:07;4.68;;;3.47;;
40076;SDS011;25777;47.824;18.982;2023-08-12T01:01:32;5.05;;;3.40;;
40076;SDS011;25777;47.824;18.982;2023-08-12T01:04:00;5.95;;;3.60;;
40076;SDS011;25777;47.824;18.982;2023-08-12T01:06:26;5.45;;;3.33;;
40076;SDS011;25777;47.824;18.982;2023-08-12T01:08:52;6.30;;;3.50;;
40076;SDS011;25777;47.824;18.982;2023-08-12T01:14:14;4.70;;;3.30;;
40076;SDS011;25777;47.824;18.982;2023-08-12T01:16:43;5.60;;;3.60;;
40076;SDS011;25777;47.824;18.982;2023-08-12T01:19:13;5.57;;;3.90;;
40076;SDS011;25777;47.824;18.982;2023-08-12T01:24:51;5.22;;;3.80;;
40076;SDS011;25777;47.824;18.982;2023-08-12T01:27:18;7.15;;;3.70;;
40076;SDS011;25777;47.824;18.982;2023-08-12T01:29:54;6.03;;;3.60;;
40076;SDS011;25777;47.824;18.982;2023-08-12T01:35:25;5.15;;;3.65;;
40076;SDS011;25777;47.824;18.982;2023-08-12T01:37:56;6.47;;;3.58;;
40076;SDS011;25777;47.824;18.982;2023-08-12T01:45:27;6.20;;;3.55;;
40076;SDS011;25777;47.824;18.982;2023-08-12T01:50:38;4.78;;;3.38;;
40076;SDS011;25777;47.824;18.982;2023-08-12T01:53:05;5.97;;;3.80;;
40076;SDS011;25777;47.824;18.982;2023-08-12T01:55:33;6.03;;;3.90;;
40076;SDS011;25777;47.824;18.982;2023-08-12T01:58:01;7.03;;;3.80;;
40076;SDS011;25777;47.824;18.982;2023-08-12T02:00:36;4.88;;;3.42;;
40076;SDS011;25777;47.824;18.982;2023-08-12T02:03:03;7.68;;;4.47;;
40076;SDS011;25777;47.824;18.982;2023-08-12T02:05:34;5.50;;;3.42;;
40076;SDS011;25777;47.824;18.982;2023-08-12T02:08:09;6.07;;;3.53;;
40076;SDS011;25777;47.824;18.982;2023-08-12T02:10:35;7.30;;;4.00;;
40076;SDS011;25777;47.824;18.982;2023-08-12T02:13:02;5.20;;;3.42;;
40076;SDS011;25777;47.824;18.982;2023-08-12T02:15:31;5.85;;;3.65;;
40076;SDS011;25777;47.824;18.982;2023-08-12T02:18:10;5.30;;;3.80;;
40076;SDS011;25777;47.824;18.982;2023-08-12T02:20:48;5.28;;;3.75;;
40076;SDS011;25777;47.824;18.982;2023-08-12T02:23:22;6.35;;;3.92;;
40076;SDS011;25777;47.824;18.982;2023-08-12T02:25:49;5.25;;;3.47;;
40076;SDS011;25777;47.824;18.982;2023-08-12T02:28:21;5.93;;;3.42;;
40076;SDS011;25777;47.824;18.982;2023-08-12T02:30:52;6.75;;;3.50;;
40076;SDS011;25777;47.824;18.982;2023-08-12T02:33:18;4.55;;;3.22;;
40076;SDS011;25777;47.824;18.982;2023-08-12T02:35:44;5.40;;;3.63;;
40076;SDS011;25777;47.824;18.982;2023-08-12T02:38:10;6.82;;;3.90;;
40076;SDS011;25777;47.824;18.982;2023-08-12T02:40:49;4.45;;;3.30;;
40076;SDS011;25777;47.824;18.982;2023-08-12T02:43:16;5.45;;;3.70;;
40076;SDS011;25777;47.824;18.982;2023-08-12T02:45:47;4.57;;;3.17;;
40076;SDS011;25777;47.824;18.982;2023-08-12T02:48:19;5.15;;;3.53;;
40076;SDS011;25777;47.824;18.982;2023-08-12T02:50:48;5.07;;;3.28;;
40076;SDS011;25777;47.824;18.982;2023-08-12T02:53:14;6.25;;;3.40;;
40076;SDS011;25777;47.824;18.982;2023-08-12T02:55:41;7.85;;;4.03;;
40076;SDS011;25777;47.824;18.982;2023-08-12T02:58:12;5.72;;;3.60;;
40076;SDS011;25777;47.824;18.982;2023-08-12T03:00:42;5.78;;;3.60;;
40076;SDS011;25777;47.824;18.982;2023-08-12T03:05:40;4.72;;;3.33;;
40076;SDS011;25777;47.824;18.982;2023-08-12T03:08:06;5.05;;;3.42;;
40076;SDS011;25777;47.824;18.982;2023-08-12T03:10:35;8.30;;;3.90;;
40076;SDS011;25777;47.824;18.982;2023-08-12T03:15:31;4.25;;;3.28;;
40076;SDS011;25777;47.824;18.982;2023-08-12T03:17:59;5.72;;;3.40;;
40076;SDS011;25777;47.824;18.982;2023-08-12T03:20:26;8.90;;;3.88;;
40076;SDS011;25777;47.824;18.982;2023-08-12T03:22:53;5.18;;;3.47;;
40076;SDS011;25777;47.824;18.982;2023-08-12T03:25:20;7.47;;;3.50;;
40076;SDS011;25777;47.824;18.982;2023-08-12T03:27:54;6.95;;;3.47;;
40076;SDS011;25777;47.824;18.982;2023-08-12T03:30:22;8.95;;;3.58;;
40076;SDS011;25777;47.824;18.982;2023-08-12T03:32:51;6.95;;;3.92;;
40076;SDS011;25777;47.824;18.982;2023-08-12T03:35:19;5.22;;;3.63;;
40076;SDS011;25777;47.824;18.982;2023-08-12T03:38:00;6.05;;;3.65;;
40076;SDS011;25777;47.824;18.982;2023-08-12T03:43:12;5.78;;;3.42;;
40076;SDS011;25777;47.824;18.982;2023-08-12T03:45:44;6.05;;;3.80;;
40076;SDS011;25777;47.824;18.982;2023-08-12T03:48:12;6.22;;;3.90;;
40076;SDS011;25777;47.824;18.982;2023-08-12T03:50:39;4.88;;;3.38;;
40076;SDS011;25777;47.824;18.982;2023-08-12T03:53:19;7.07;;;3.90;;
40076;SDS011;25777;47.824;18.982;2023-08-12T03:55:45;5.50;;;3.53;;
40076;SDS011;25777;47.824;18.982;2023-08-12T03:58:12;6.57;;;4.15;;
40076;SDS011;25777;47.824;18.982;2023-08-12T04:00:43;6.88;;;4.30;;
40076;SDS011;25777;47.824;18.982;2023-08-12T04:03:19;6.00;;;4.05;;
40076;SDS011;25777;47.824;18.982;2023-08-12T04:05:51;7.85;;;4.18;;
40076;SDS011;25777;47.824;18.982;2023-08-12T04:08:36;6.82;;;3.97;;
40076;SDS011;25777;47.824;18.982;2023-08-12T04:11:07;6.55;;;3.83;;
40076;SDS011;25777;47.824;18.982;2023-08-12T04:13:41;6.07;;;3.70;;
40076;SDS011;25777;47.824;18.982;2023-08-12T04:16:08;5.05;;;3.63;;
40076;SDS011;25777;47.824;18.982;2023-08-12T04:21:13;6.07;;;3.67;;
40076;SDS011;25777;47.824;18.982;2023-08-12T04:23:55;6.03;;;3.72;;
40076;SDS011;25777;47.824;18.982;2023-08-12T04:26:32;6.20;;;4.10;;
40076;SDS011;25777;47.824;18.982;2023-08-12T04:29:05;7.75;;;4.05;;
40076;SDS011;25777;47.824;18.982;2023-08-12T04:34:06;8.77;;;4.20;;
40076;SDS011;25777;47.824;18.982;2023-08-12T04:36:33;8.30;;;4.22;;
40076;SDS011;25777;47.824;18.982;2023-08-12T04:38:59;6.05;;;4.13;;
40076;SDS011;25777;47.824;18.982;2023-08-12T04:41:27;6.45;;;3.83;;
40076;SDS011;25777;47.824;18.982;2023-08-12T04:43:53;7.20;;;3.80;;
40076;SDS011;25777;47.824;18.982;2023-08-12T04:46:29;5.55;;;3.67;;
40076;SDS011;25777;47.824;18.982;2023-08-12T04:51:53;6.15;;;4.07;;
40076;SDS011;25777;47.824;18.982;2023-08-12T04:54:21;8.23;;;4.05;;
40076;SDS011;25777;47.824;18.982;2023-08-12T04:56:47;5.93;;;3.55;;
40076;SDS011;25777;47.824;18.982;2023-08-12T05:01:43;5.43;;;3.80;;
40076;SDS011;25777;47.824;18.982;2023-08-12T05:04:09;6.93;;;3.80;;
40076;SDS011;25777;47.824;18.982;2023-08-12T05:06:35;7.35;;;4.13;;
40076;SDS011;25777;47.824;18.982;2023-08-12T05:09:03;5.80;;;4.22;;
40076;SDS011;25777;47.824;18.982;2023-08-12T05:11:35;6.10;;;4.25;;
40076;SDS011;25777;47.824;18.982;2023-08-12T05:14:13;5.70;;;4.00;;
40076;SDS011;25777;47.824;18.982;2023-08-12T05:16:39;5.80;;;4.25;;
40076;SDS011;25777;47.824;18.982;2023-08-12T05:21:40;8.07;;;4.03;;
40076;SDS011;25777;47.824;18.982;2023-08-12T05:24:06;7.95;;;3.58;;
40076;SDS011;25777;47.824;18.982;2023-08-12T05:26:33;6.63;;;4.15;;
40076;SDS011;25777;47.824;18.982;2023-08-12T05:28:59;6.25;;;4.20;;
40076;SDS011;25777;47.824;18.982;2023-08-12T05:31:29;6.22;;;4.40;;
40076;SDS011;25777;47.824;18.982;2023-08-12T05:34:03;6.65;;;4.25;;
40076;SDS011;25777;47.824;18.982;2023-08-12T05:36:36;6.57;;;4.43;;
40076;SDS011;25777;47.824;18.982;2023-08-12T05:39:03;6.55;;;4.05;;
40076;SDS011;25777;47.824;18.982;2023-08-12T05:41:29;5.88;;;4.05;;
40076;SDS011;25777;47.824;18.982;2023-08-12T05:44:06;6.00;;;4.07;;
40076;SDS011;25777;47.824;18.982;2023-08-12T05:46:32;7.60;;;4.30;;
40076;SDS011;25777;47.824;18.982;2023-08-12T05:48:59;6.80;;;4.13;;
40076;SDS011;25777;47.824;18.982;2023-08-12T05:51:26;7.35;;;4.03;;
40076;SDS011;25777;47.824;18.982;2023-08-12T05:53:52;5.20;;;3.47;;
40076;SDS011;25777;47.824;18.982;2023-08-12T05:56:19;5.55;;;4.10;;
40076;SDS011;25777;47.824;18.982;2023-08-12T05:58:52;6.53;;;3.63;;
40076;SDS011;25777;47.824;18.982;2023-08-12T06:01:18;5.18;;;3.60;;
40076;SDS011;25777;47.824;18.982;2023-08-12T06:06:50;5.45;;;3.97;;
40076;SDS011;25777;47.824;18.982;2023-08-12T06:09:25;9.13;;;3.63;;
40076;SDS011;25777;47.824;18.982;2023-08-12T06:11:51;5.35;;;3.38;;
40076;SDS011;25777;47.824;18.982;2023-08-12T06:14:19;7.22;;;3.70;;
40076;SDS011;25777;47.824;18.982;2023-08-12T06:16:45;4.00;;;3.15;;
40076;SDS011;25777;47.824;18.982;2023-08-12T06:19:13;7.75;;;3.17;;
40076;SDS011;25777;47.824;18.982;2023-08-12T06:21:39;5.00;;;3.42;;
40076;SDS011;25777;47.824;18.982;2023-08-12T06:24:05;8.90;;;3.70;;
40076;SDS011;25777;47.824;18.982;2023-08-12T06:26:39;4.38;;;3.20;;
40076;SDS011;25777;47.824;18.982;2023-08-12T06:31:35;4.35;;;3.05;;
40076;SDS011;25777;47.824;18.982;2023-08-12T06:34:03;5.22;;;3.55;;
40076;SDS011;25777;47.824;18.982;2023-08-12T06:36:41;6.00;;;3.20;;
40076;SDS011;25777;47.824;18.982;2023-08-12T06:39:09;4.65;;;3.25;;
40076;SDS011;25777;47.824;18.982;2023-08-12T06:41:35;4.90;;;3.17;;
40076;SDS011;25777;47.824;18.982;2023-08-12T06:46:31;5.13;;;3.13;;
40076;SDS011;25777;47.824;18.982;2023-08-12T06:48:58;4.38;;;2.53;;
40076;SDS011;25777;47.824;18.982;2023-08-12T06:51:25;5.72;;;3.20;;
40076;SDS011;25777;47.824;18.982;2023-08-12T06:53:58;3.17;;;2.55;;
40076;SDS011;25777;47.824;18.982;2023-08-12T06:58:50;4.72;;;2.80;;
40076;SDS011;25777;47.824;18.982;2023-08-12T07:01:17;7.22;;;3.05;;
40076;SDS011;25777;47.824;18.982;2023-08-12T07:03:44;4.55;;;2.67;;
40076;SDS011;25777;47.824;18.982;2023-08-12T07:08:40;3.03;;;2.33;;
40076;SDS011;25777;47.824;18.982;2023-08-12T07:11:23;4.35;;;3.00;;
40076;SDS011;25777;47.824;18.982;2023-08-12T07:13:49;3.80;;;2.95;;
40076;SDS011;25777;47.824;18.982;2023-08-12T07:16:15;5.00;;;2.90;;
40076;SDS011;25777;47.824;18.982;2023-08-12T07:18:41;4.18;;;2.65;;
40076;SDS011;25777;47.824;18.982;2023-08-12T07:21:10;4.85;;;3.00;;
40076;SDS011;25777;47.824;18.982;2023-08-12T07:26:10;2.95;;;2.15;;
40076;SDS011;25777;47.824;18.982;2023-08-12T07:28:42;6.25;;;1.98;;
40076;SDS011;25777;47.824;18.982;2023-08-12T07:31:08;3.27;;;2.30;;
40076;SDS011;25777;47.824;18.982;2023-08-12T07:33:34;2.92;;;2.20;;
40076;SDS011;25777;47.824;18.982;2023-08-12T07:36:00;3.83;;;2.17;;
40076;SDS011;25777;47.824;18.982;2023-08-12T07:38:42;5.43;;;3.00;;
40076;SDS011;25777;47.824;18.982;2023-08-12T07:41:09;3.80;;;2.33;;
40076;SDS011;25777;47.824;18.982;2023-08-12T07:43:43;5.15;;;2.67;;
40076;SDS011;25777;47.824;18.982;2023-08-12T07:46:11;7.00;;;2.83;;
40076;SDS011;25777;47.824;18.982;2023-08-12T07:48:53;3.88;;;2.15;;
40076;SDS011;25777;47.824;18.982;2023-08-12T07:51:22;5.13;;;2.78;;
40076;SDS011;25777;47.824;18.982;2023-08-12T07:53:50;3.25;;;2.30;;
40076;SDS011;25777;47.824;18.982;2023-08-12T07:56:18;5.10;;;2.40;;
40076;SDS011;25777;47.824;18.982;2023-08-12T07:58:45;6.53;;;2.58;;
40076;SDS011;25777;47.824;18.982;2023-08-12T08:01:12;7.05;;;3.40;;
40076;SDS011;25777;47.824;18.982;2023-08-12T08:03:46;4.10;;;2.85;;
40076;SDS011;25777;47.824;18.982;2023-08-12T08:06:12;3.45;;;2.50;;
40076;SDS011;25777;47.824;18.982;2023-08-12T08:08:49;3.65;;;2.50;;
40076;SDS011;25777;47.824;18.982;2023-08-12T08:11:17;3.33;;;2.50;;
40076;SDS011;25777;47.824;18.982;2023-08-12T08:13:43;2.83;;;2.30;;
40076;SDS011;25777;47.824;18.982;2023-08-12T08:16:24;3.63;;;2.60;;
40076;SDS011;25777;47.824;18.982;2023-08-12T08:18:50;3.03;;;2.45;;
40076;SDS011;25777;47.824;18.982;2023-08-12T08:21:17;3.30;;;2.20;;
40076;SDS011;25777;47.824;18.982;2023-08-12T08:23:45;5.55;;;2.65;;
40076;SDS011;25777;47.824;18.982;2023-08-12T08:26:12;3.53;;;2.33;;
40076;SDS011;25777;47.824;18.982;2023-08-12T08:28:40;3.80;;;2.65;;
40076;SDS011;25777;47.824;18.982;2023-08-12T08:31:06;5.03;;;2.60;;
40076;SDS011;25777;47.824;18.982;2023-08-12T08:33:32;3.92;;;2.67;;
40076;SDS011;25777;47.824;18.982;2023-08-12T08:35:58;3.38;;;2.70;;
40076;SDS011;25777;47.824;18.982;2023-08-12T08:38:24;6.90;;;2.90;;
40076;SDS011;25777;47.824;18.982;2023-08-12T08:40:57;3.92;;;2.75;;
40076;SDS011;25777;47.824;18.982;2023-08-12T08:43:24;5.35;;;2.70;;
40076;SDS011;25777;47.824;18.982;2023-08-12T08:45:54;3.55;;;2.20;;
40076;SDS011;25777;47.824;18.982;2023-08-12T08:48:21;3.92;;;2.70;;
40076;SDS011;25777;47.824;18.982;2023-08-12T08:50:48;4.03;;;2.88;;
40076;SDS011;25777;47.824;18.982;2023-08-12T08:53:27;4.32;;;2.40;;
40076;SDS011;25777;47.824;18.982;2023-08-12T08:55:54;8.13;;;2.60;;
40076;SDS011;25777;47.824;18.982;2023-08-12T08:58:21;3.75;;;2.67;;
40076;SDS011;25777;47.824;18.982;2023-08-12T09:00:48;5.75;;;2.58;;
40076;SDS011;25777;47.824;18.982;2023-08-12T09:03:15;5.10;;;2.58;;
40076;SDS011;25777;47.824;18.982;2023-08-12T09:05:54;4.43;;;2.72;;
40076;SDS011;25777;47.824;18.982;2023-08-12T09:10:59;4.15;;;2.38;;
40076;SDS011;25777;47.824;18.982;2023-08-12T09:13:29;4.25;;;2.33;;
40076;SDS011;25777;47.824;18.982;2023-08-12T09:15:56;4.10;;;2.38;;
40076;SDS011;25777;47.824;18.982;2023-08-12T09:18:22;3.92;;;2.58;;
40076;SDS011;25777;47.824;18.982;2023-08-12T09:20:53;4.43;;;2.53;;
40076;SDS011;25777;47.824;18.982;2023-08-12T09:23:19;3.45;;;2.88;;
40076;SDS011;25777;47.824;18.982;2023-08-12T09:28:16;3.50;;;2.47;;
40076;SDS011;25777;47.824;18.982;2023-08-12T09:30:43;4.00;;;2.85;;
40076;SDS011;25777;47.824;18.982;2023-08-12T09:33:25;4.03;;;2.72;;
40076;SDS011;25777;47.824;18.982;2023-08-12T09:41:00;3.05;;;2.33;;
40076;SDS011;25777;47.824;18.982;2023-08-12T09:43:31;4.13;;;2.40;;
40076;SDS011;25777;47.824;18.982;2023-08-12T09:46:00;8.63;;;2.35;;
40076;SDS011;25777;47.824;18.982;2023-08-12T09:48:29;3.65;;;2.30;;
40076;SDS011;25777;47.824;18.982;2023-08-12T09:50:55;5.18;;;2.50;;
40076;SDS011;25777;47.824;18.982;2023-08-12T09:53:24;3.40;;;2.08;;
40076;SDS011;25777;47.824;18.982;2023-08-12T09:58:35;3.13;;;2.47;;
40076;SDS011;25777;47.824;18.982;2023-08-12T10:01:05;3.10;;;2.22;;
40076;SDS011;25777;47.824;18.982;2023-08-12T10:03:33;5.57;;;2.50;;
40076;SDS011;25777;47.824;18.982;2023-08-12T10:06:02;3.80;;;2.17;;
40076;SDS011;25777;47.824;18.982;2023-08-12T10:08:36;2.97;;;2.47;;
40076;SDS011;25777;47.824;18.982;2023-08-12T10:11:03;4.15;;;2.22;;
40076;SDS011;25777;47.824;18.982;2023-08-12T10:13:29;4.50;;;2.38;;
40076;SDS011;25777;47.824;18.982;2023-08-12T10:15:55;4.45;;;2.78;;
40076;SDS011;25777;47.824;18.982;2023-08-12T10:18:21;3.08;;;2.67;;
40076;SDS011;25777;47.824;18.982;2023-08-12T10:20:50;2.90;;;2.13;;
40076;SDS011;25777;47.824;18.982;2023-08-12T10:23:17;4.65;;;2.25;;
40076;SDS011;25777;47.824;18.982;2023-08-12T10:25:53;2.97;;;2.08;;
40076;SDS011;25777;47.824;18.982;2023-08-12T10:28:25;5.30;;;2.38;;
40076;SDS011;25777;47.824;18.982;2023-08-12T10:30:52;3.40;;;2.38;;
40076;SDS011;25777;47.824;18.982;2023-08-12T10:36:15;6.22;;;2.40;;
40076;SDS011;25777;47.824;18.982;2023-08-12T10:38:44;4.50;;;2.17;;
40076;SDS011;25777;47.824;18.982;2023-08-12T10:41:23;4.45;;;2.15;;
40076;SDS011;25777;47.824;18.982;2023-08-12T10:43:53;3.53;;;2.28;;
40076;SDS011;25777;47.824;18.982;2023-08-12T10:46:36;3.83;;;2.10;;
40076;SDS011;25777;47.824;18.982;2023-08-12T10:54:31;3.38;;;2.25;;
40076;SDS011;25777;47.824;18.982;2023-08-12T10:57:05;2.90;;;2.20;;
40076;SDS011;25777;47.824;18.982;2023-08-12T11:02:28;3.03;;;2.25;;
40076;SDS011;25777;47.824;18.982;2023-08-12T11:10:15;2.90;;;2.20;;
40076;SDS011;25777;47.824;18.982;2023-08-12T11:12:54;2.40;;;1.90;;
40076;SDS011;25777;47.824;18.982;2023-08-12T11:20:48;3.08;;;1.90;;
40076;SDS011;25777;47.824;18.982;2023-08-12T11:25:45;2.70;;;1.92;;
40076;SDS011;25777;47.824;18.982;2023-08-12T11:33:26;2.10;;;1.90;;
40076;SDS011;25777;47.824;18.982;2023-08-12T11:35:56;3.40;;;2.25;;
40076;SDS011;25777;47.824;18.982;2023-08-12T11:38:22;3.20;;;2.20;;
40076;SDS011;25777;47.824;18.982;2023-08-12T11:41:06;3.95;;;2.03;;
40076;SDS011;25777;47.824;18.982;2023-08-12T11:43:34;3.58;;;2.10;;
40076;SDS011;25777;47.824;18.982;2023-08-12T11:45:59;2.55;;;1.90;;
40076;SDS011;25777;47.824;18.982;2023-08-12T11:48:28;2.83;;;1.90;;
40076;SDS011;25777;47.824;18.982;2023-08-12T11:50:56;3.35;;;2.00;;
40076;SDS011;25777;47.824;18.982;2023-08-12T11:53:23;2.35;;;1.80;;
40076;SDS011;25777;47.824;18.982;2023-08-12T11:55:50;2.75;;;2.10;;
40076;SDS011;25777;47.824;18.982;2023-08-12T11:58:17;2.30;;;2.05;;
40076;SDS011;25777;47.824;18.982;2023-08-12T12:00:46;2.65;;;2.05;;
40076;SDS011;25777;47.824;18.982;2023-08-12T12:03:13;2.10;;;1.90;;
40076;SDS011;25777;47.824;18.982;2023-08-12T12:05:41;2.67;;;2.08;;
40076;SDS011;25777;47.824;18.982;2023-08-12T12:08:06;3.65;;;2.40;;
40076;SDS011;25777;47.824;18.982;2023-08-12T12:10:34;3.22;;;1.80;;
40076;SDS011;25777;47.824;18.982;2023-08-12T12:13:03;2.33;;;1.85;;
40076;SDS011;25777;47.824;18.982;2023-08-12T12:15:43;2.60;;;2.00;;
40076;SDS011;25777;47.824;18.982;2023-08-12T12:20:59;2.30;;;2.00;;
40076;SDS011;25777;47.824;18.982;2023-08-12T12:26:03;3.08;;;2.17;;
40076;SDS011;25777;47.824;18.982;2023-08-12T12:28:29;2.90;;;2.10;;
40076;SDS011;25777;47.824;18.982;2023-08-12T12:30:56;2.45;;;1.67;;
40076;SDS011;25777;47.824;18.982;2023-08-12T12:33:22;2.55;;;2.10;;
40076;SDS011;25777;47.824;18.982;2023-08-12T12:35:48;2.97;;;2.13;;
40076;SDS011;25777;47.824;18.982;2023-08-12T12:38:20;2.30;;;1.85;;
40076;SDS011;25777;47.824;18.982;2023-08-12T12:40:59;3.90;;;2.30;;
40076;SDS011;25777;47.824;18.982;2023-08-12T12:43:25;4.47;;;2.03;;
40076;SDS011;25777;47.824;18.982;2023-08-12T12:45:51;3.42;;;2.00;;
40076;SDS011;25777;47.824;18.982;2023-08-12T12:48:18;2.03;;;1.60;;
40076;SDS011;25777;47.824;18.982;2023-08-12T12:50:44;2.08;;;1.80;;
40076;SDS011;25777;47.824;18.982;2023-08-12T12:53:10;3.13;;;2.10;;
40076;SDS011;25777;47.824;18.982;2023-08-12T12:58:07;1.85;;;1.65;;
40076;SDS011;25777;47.824;18.982;2023-08-12T13:00:34;3.40;;;1.80;;
40076;SDS011;25777;47.824;18.982;2023-08-12T13:05:56;2.50;;;2.10;;
40076;SDS011;25777;47.824;18.982;2023-08-12T13:10:51;4.57;;;2.30;;
40076;SDS011;25777;47.824;18.982;2023-08-12T13:13:17;4.63;;;2.88;;
40076;SDS011;25777;47.824;18.982;2023-08-12T13:18:36;3.28;;;2.00;;
40076;SDS011;25777;47.824;18.982;2023-08-12T13:21:02;4.00;;;1.90;;
40076;SDS011;25777;47.824;18.982;2023-08-12T13:23:28;4.45;;;1.98;;
40076;SDS011;25777;47.824;18.982;2023-08-12T13:25:55;2.28;;;2.00;;
40076;SDS011;25777;47.824;18.982;2023-08-12T13:28:21;4.68;;;1.90;;
40076;SDS011;25777;47.824;18.982;2023-08-12T13:33:22;2.80;;;1.95;;
40076;SDS011;25777;47.824;18.982;2023-08-12T13:35:50;2.38;;;1.85;;
40076;SDS011;25777;47.824;18.982;2023-08-12T13:38:18;2.80;;;1.85;;
40076;SDS011;25777;47.824;18.982;2023-08-12T13:40:53;3.78;;;2.10;;
40076;SDS011;25777;47.824;18.982;2023-08-12T13:43:21;2.45;;;1.80;;
40076;SDS011;25777;47.824;18.982;2023-08-12T13:45:49;3.88;;;1.80;;
40076;SDS011;25777;47.824;18.982;2023-08-12T13:48:23;3.92;;;1.73;;
40076;SDS011;25777;47.824;18.982;2023-08-12T13:53:30;3.03;;;1.85;;
40076;SDS011;25777;47.824;18.982;2023-08-12T13:55:58;3.13;;;1.98;;
40076;SDS011;25777;47.824;18.982;2023-08-12T13:58:24;2.72;;;1.90;;
40076;SDS011;25777;47.824;18.982;2023-08-12T14:01:01;2.22;;;1.63;;
40076;SDS011;25777;47.824;18.982;2023-08-12T14:03:27;4.18;;;2.15;;
40076;SDS011;25777;47.824;18.982;2023-08-12T14:05:53;6.22;;;2.28;;
40076;SDS011;25777;47.824;18.982;2023-08-12T14:08:19;3.28;;;2.00;;
40076;SDS011;25777;47.824;18.982;2023-08-12T14:13:37;2.42;;;1.90;;
40076;SDS011;25777;47.824;18.982;2023-08-12T14:16:05;3.08;;;2.10;;
40076;SDS011;25777;47.824;18.982;2023-08-12T14:18:31;2.53;;;1.60;;
40076;SDS011;25777;47.824;18.982;2023-08-12T14:20:57;3.65;;;2.00;;
40076;SDS011;25777;47.824;18.982;2023-08-12T14:23:23;3.17;;;1.70;;
40076;SDS011;25777;47.824;18.982;2023-08-12T14:25:51;2.78;;;2.03;;
40076;SDS011;25777;47.824;18.982;2023-08-12T14:28:23;3.85;;;2.08;;
40076;SDS011;25777;47.824;18.982;2023-08-12T14:31:01;2.63;;;2.08;;
40076;SDS011;25777;47.824;18.982;2023-08-12T14:33:30;2.97;;;2.20;;
40076;SDS011;25777;47.824;18.982;2023-08-12T14:35:59;2.90;;;2.22;;
40076;SDS011;25777;47.824;18.982;2023-08-12T14:38:25;2.42;;;1.95;;
40076;SDS011;25777;47.824;18.982;2023-08-12T14:40:53;2.47;;;1.98;;
40076;SDS011;25777;47.824;18.982;2023-08-12T14:43:20;3.38;;;1.90;;
40076;SDS011;25777;47.824;18.982;2023-08-12T14:48:15;5.18;;;1.73;;
40076;SDS011;25777;47.824;18.982;2023-08-12T14:50:43;2.10;;;1.90;;
40076;SDS011;25777;47.824;18.982;2023-08-12T14:53:09;3.33;;;2.15;;
40076;SDS011;25777;47.824;18.982;2023-08-12T14:55:35;7.38;;;4.38;;
40076;SDS011;25777;47.824;18.982;2023-08-12T14:58:01;3.42;;;2.72;;
40076;SDS011;25777;47.824;18.982;2023-08-12T15:00:28;2.70;;;2.17;;
40076;SDS011;25777;47.824;18.982;2023-08-12T15:02:55;5.40;;;2.35;;
40076;SDS011;25777;47.824;18.982;2023-08-12T15:05:21;2.80;;;2.20;;
40076;SDS011;25777;47.824;18.982;2023-08-12T15:07:51;6.22;;;2.20;;
40076;SDS011;25777;47.824;18.982;2023-08-12T15:10:17;16.27;;;9.90;;
40076;SDS011;25777;47.824;18.982;2023-08-12T15:15:20;10.40;;;5.50;;
40076;SDS011;25777;47.824;18.982;2023-08-12T15:17:46;3.88;;;2.97;;
40076;SDS011;25777;47.824;18.982;2023-08-12T15:20:21;4.47;;;2.15;;
40076;SDS011;25777;47.824;18.982;2023-08-12T15:22:49;3.35;;;2.40;;
40076;SDS011;25777;47.824;18.982;2023-08-12T15:25:16;3.78;;;2.10;;
40076;SDS011;25777;47.824;18.982;2023-08-12T15:27:42;2.10;;;1.90;;
40076;SDS011;25777;47.824;18.982;2023-08-12T15:30:08;3.97;;;2.17;;
40076;SDS011;25777;47.824;18.982;2023-08-12T15:32:36;2.67;;;2.15;;
40076;SDS011;25777;47.824;18.982;2023-08-12T15:35:02;4.20;;;2.35;;
40076;SDS011;25777;47.824;18.982;2023-08-12T15:37:28;2.95;;;2.30;;
40076;SDS011;25777;47.824;18.982;2023-08-12T15:40:00;2.50;;;2.10;;
40076;SDS011;25777;47.824;18.982;2023-08-12T15:42:26;3.38;;;2.28;;
40076;SDS011;25777;47.824;18.982;2023-08-12T15:44:52;3.47;;;2.88;;
40076;SDS011;25777;47.824;18.982;2023-08-12T15:47:19;3.85;;;2.47;;
40076;SDS011;25777;47.824;18.982;2023-08-12T15:49:46;3.05;;;2.20;;
40076;SDS011;25777;47.824;18.982;2023-08-12T15:52:11;3.75;;;2.08;;
40076;SDS011;25777;47.824;18.982;2023-08-12T15:54:38;2.83;;;2.40;;
40076;SDS011;25777;47.824;18.982;2023-08-12T15:57:06;4.70;;;2.88;;
40076;SDS011;25777;47.824;18.982;2023-08-12T15:59:33;5.07;;;3.83;;
40076;SDS011;25777;47.824;18.982;2023-08-12T16:07:09;3.28;;;2.47;;
40076;SDS011;25777;47.824;18.982;2023-08-12T16:09:37;4.68;;;2.35;;
40076;SDS011;25777;47.824;18.982;2023-08-12T16:12:02;5.00;;;2.28;;
40076;SDS011;25777;47.824;18.982;2023-08-12T16:14:36;3.53;;;2.30;;
40076;SDS011;25777;47.824;18.982;2023-08-12T16:17:02;3.65;;;2.55;;
40076;SDS011;25777;47.824;18.982;2023-08-12T16:19:44;8.63;;;6.68;;
40076;SDS011;25777;47.824;18.982;2023-08-12T16:24:57;3.88;;;3.28;;
40076;SDS011;25777;47.824;18.982;2023-08-12T16:27:23;4.80;;;3.35;;
40076;SDS011;25777;47.824;18.982;2023-08-12T16:32:19;4.65;;;2.60;;
40076;SDS011;25777;47.824;18.982;2023-08-12T16:34:49;2.88;;;2.20;;
40076;SDS011;25777;47.824;18.982;2023-08-12T16:37:16;4.93;;;2.30;;
40076;SDS011;25777;47.824;18.982;2023-08-12T16:39:49;6.00;;;2.28;;
40076;SDS011;25777;47.824;18.982;2023-08-12T16:42:17;5.05;;;2.58;;
40076;SDS011;25777;47.824;18.982;2023-08-12T16:44:44;5.05;;;2.72;;
40076;SDS011;25777;47.824;18.982;2023-08-12T16:47:10;3.35;;;2.60;;
40076;SDS011;25777;47.824;18.982;2023-08-12T16:49:37;6.00;;;2.80;;
40076;SDS011;25777;47.824;18.982;2023-08-12T16:52:03;4.85;;;2.70;;
40076;SDS011;25777;47.824;18.982;2023-08-12T16:57:00;6.22;;;2.80;;
40076;SDS011;25777;47.824;18.982;2023-08-12T16:59:26;4.47;;;2.60;;
40076;SDS011;25777;47.824;18.982;2023-08-12T17:01:52;4.00;;;2.90;;
40076;SDS011;25777;47.824;18.982;2023-08-12T17:04:19;5.82;;;3.28;;
40076;SDS011;25777;47.824;18.982;2023-08-12T17:06:52;3.75;;;2.80;;
40076;SDS011;25777;47.824;18.982;2023-08-12T17:09:18;5.25;;;3.20;;
40076;SDS011;25777;47.824;18.982;2023-08-12T17:11:44;5.57;;;3.47;;
40076;SDS011;25777;47.824;18.982;2023-08-12T17:14:10;6.47;;;4.00;;
40076;SDS011;25777;47.824;18.982;2023-08-12T17:19:06;3.78;;;3.00;;
40076;SDS011;25777;47.824;18.982;2023-08-12T17:21:34;5.40;;;2.92;;
40076;SDS011;25777;47.824;18.982;2023-08-12T17:24:00;5.55;;;3.55;;